Oriana — ZCDU9 — position and weather

sailwx.info

Track history (hours):
 
Tides and Currents Weather Stations Pressure Air Temp Water Temp Dewpoint Dewpoint Depression Visibility Wind Speed Wind Dir Waves Ship Positions

Oriana (Bermuda)

Last reported at 2017-Nov-19 15:20 UTC. Time now 2017-Nov-20 18:55 UTC.
Position N 38°49' E 009°40'.

Length 261 m; beam 32.2 m; draft 8.2 m.

Type: Ship. MMSI: 310529000.

Date/timePositionNaut miles runAvg speedWind from/ knotsBaromVisibWave heightAir tempDewpointWater temp
2017-Nov-19 15:20N 38°49' E 009°40'619.6
2017-Nov-19 15:00N 38°52' E 009°33'1020.1
2017-Nov-19 14:30N 38°59' E 009°23'1019.9
2017-Nov-19 14:00N 39°05' E 009°14'816.4
2017-Nov-19 13:29N 39°11' E 009°06'1 2.2
2017-Nov-19 12:59N 39°12' E 009°06'0 0.0
2017-Nov-19 12:29N 39°12' E 009°06'0 0.0
2017-Nov-19 11:59N 39°12' E 009°06'0 0.0
2017-Nov-19 11:29N 39°12' E 009°06'0 0.0
2017-Nov-19 10:59N 39°12' E 009°06'0 0.0
2017-Nov-19 10:29N 39°12' E 009°06'0 0.0
2017-Nov-19 09:59N 39°12' E 009°06'0 0.0
2017-Nov-19 09:29N 39°12' E 009°06'0 0.0
2017-Nov-19 08:59N 39°12' E 009°06'0 0.0
2017-Nov-19 08:29N 39°12' E 009°06'0 0.0
2017-Nov-19 07:59N 39°12' E 009°06'0 0.0
2017-Nov-19 07:29N 39°12' E 009°06'0 0.0
2017-Nov-19 06:58N 39°12' E 009°06'0 0.6
2017-Nov-19 06:30N 39°12' E 009°07'1 2.1
2017-Nov-19 06:00N 39°11' E 009°06'510.1
2017-Nov-19 05:30N 39°06' E 009°07'715.4
2017-Nov-19 05:00N 38°59' E 009°06'917.5
2017-Nov-19 04:30N 38°53' E 008°58'1018.5
2017-Nov-19 03:57N 38°47' E 008°47'41918.5
2017-Nov-18 05:16N 36°55' E 000°15'517.5
2017-Nov-18 05:00N 36°53' E 000°09'26417.9
2017-Nov-17 14:18N 36°01' W 005°12'517.5
2017-Nov-17 14:00N 36°02' W 005°19'713.2
2017-Nov-17 13:30N 36°08' W 005°23'2 3.1
2017-Nov-17 13:00N 36°09' W 005°22'0 0.0
2017-Nov-17 12:30N 36°09' W 005°22'0 0.0
2017-Nov-17 11:57N 36°09' W 005°22'0 0.0
2017-Nov-17 11:27N 36°09' W 005°22'0 0.0
2017-Nov-17 11:00N 36°09' W 005°22'0 0.0
2017-Nov-17 10:17N 36°09' W 005°22'0 0.0
2017-Nov-17 09:59N 36°09' W 005°22'0 0.0
2017-Nov-17 09:29N 36°09' W 005°22'0 0.0
2017-Nov-17 08:41N 36°09' W 005°22'0 0.0
2017-Nov-17 08:28N 36°09' W 005°22'0 0.0
2017-Nov-17 07:52N 36°09' W 005°22'0 0.0
2017-Nov-17 07:28N 36°09' W 005°22'0 0.0
2017-Nov-17 07:00N 36°09' W 005°22'1 1.9
2017-Nov-17 06:16N 36°08' W 005°23'2 9.4
2017-Nov-17 06:00N 36°06' W 005°22'611.0
2017-Nov-17 05:30N 36°00' W 005°23'713.9
2017-Nov-17 05:00N 35°57' W 005°30'112 4.2
2017-Nov-16 02:03N 36°34' W 007°42'222.3
2017-Nov-16 01:57N 36°34' W 007°45'2721.2
2017-Nov-16 00:42N 36°32' W 008°18'1320.8
2017-Nov-16 00:05N 36°33' W 008°34'6417.6
2017-Nov-15 20:25N 37°11' W 009°38'1021.2
2017-Nov-15 19:56N 37°21' W 009°42'921.3
2017-Nov-15 19:30N 37°30' W 009°45'1121.3
2017-Nov-15 19:00N 37°40' W 009°50'1321.4
2017-Nov-15 18:23N 37°53' W 009°54'821.5
2017-Nov-15 18:00N 38°01' W 009°56'1121.5
2017-Nov-15 17:30N 38°11' W 009°59'1121.5
2017-Nov-15 17:00N 38°22' W 010°00'1019.2
2017-Nov-15 16:30N 38°31' W 010°03'1019.2
2017-Nov-15 16:00N 38°41' W 010°06'1019.1
2017-Nov-15 15:30N 38°50' W 010°07'1019.5
2017-Nov-15 15:00N 39°00' W 010°07'1019.2
2017-Nov-15 14:30N 39°10' W 010°06'1019.4
2017-Nov-15 14:00N 39°19' W 010°06'1019.2
2017-Nov-15 13:29N 39°29' W 010°06'1619.2
2017-Nov-15 12:39N 39°45' W 010°07'40118.6
2017-Nov-14 15:09N 46°10' W 007°34'5219.6
2017-Nov-14 12:29N 46°55' W 006°55'1019.3
2017-Nov-14 11:58N 47°03' W 006°48'1019.4
2017-Nov-14 11:27N 47°12' W 006°40'919.7
2017-Nov-14 11:00N 47°20' W 006°33'1119.7
2017-Nov-14 10:25N 47°29' W 006°24'818.4
2017-Nov-14 10:00N 47°36' W 006°18'918.6
2017-Nov-14 09:30N 47°44' W 006°10'1018.9
2017-Nov-14 08:59N 47°52' W 006°03'1119.2
2017-Nov-14 08:26N 48°01' W 005°55'819.5
2017-Nov-14 08:00N 48°08' W 005°48'1119.7
2017-Nov-14 07:27N 48°18' W 005°41'920.0
2017-Nov-14 07:00N 48°25' W 005°33'1020.4
2017-Nov-14 06:30N 48°32' W 005°22'1020.7
2017-Nov-14 06:01N 48°40' W 005°12'1020.4
2017-Nov-14 05:30N 48°48' W 005°02'1019.4
2017-Nov-14 04:59N 48°54' W 004°50'919.0
2017-Nov-14 04:30N 48°60' W 004°39'918.7
2017-Nov-14 04:00N 49°06' W 004°28'1218.2
2017-Nov-14 03:21N 49°13' W 004°14'1017.6
2017-Nov-14 02:47N 49°19' W 004°01'1017.1
2017-Nov-14 02:12N 49°25' W 003°49'318.3
2017-Nov-14 02:00N 49°29' W 003°48'2417.6
2017-Nov-14 00:38N 49°45' W 003°21'318.5
2017-Nov-14 00:30N 49°47' W 003°18'1018.9
2017-Nov-14 00:00N 49°53' W 003°06'1019.6
2017-Nov-13 23:30N 49°58' W 002°53'1020.2
2017-Nov-13 23:00N 50°00' W 002°38'44 2.0
2017-Nov-13 01:37N 50°22' W 001°39'216.9
2017-Nov-13 01:30N 50°22' W 001°42'816.5
2017-Nov-13 01:00N 50°20' W 001°55'816.1
2017-Nov-13 00:30N 50°19' W 002°07'815.8
2017-Nov-13 00:00N 50°17' W 002°19'918.1
2017-Nov-12 23:31N 50°16' W 002°33'918.0
2017-Nov-12 23:01N 50°14' W 002°47'917.7
2017-Nov-12 22:31N 50°11' W 003°00'917.7
2017-Nov-12 22:01N 50°08' W 003°13'816.5
2017-Nov-12 21:31N 50°02' W 003°22'816.9
2017-Nov-12 21:01N 49°58' W 003°33'917.3
2017-Nov-12 20:30N 49°53' W 003°45'1815.9
2017-Nov-12 19:23N 49°42' W 004°06'2115.3
2017-Nov-12 18:00N 49°24' W 004°24'3017.4 340 / 451020.5 5.4 10.5 3.714.0
2017-Nov-12 16:14N 49°00' W 004°54'717.9
2017-Nov-12 15:52N 48°55' W 004°59'718.0
2017-Nov-12 15:29N 48°49' W 005°05'918.0
2017-Nov-12 15:00N 48°42' W 005°12'1118.7
2017-Nov-12 14:25N 48°33' W 005°22'818.8
2017-Nov-12 14:00N 48°26' W 005°28'918.4
2017-Nov-12 13:29N 48°17' W 005°29'918.5
2017-Nov-12 13:00N 48°08' W 005°27'1018.9
2017-Nov-12 12:29N 47°58' W 005°29'1018.7
2017-Nov-12 11:59N 47°49' W 005°29'918.8
2017-Nov-12 11:31N 47°40' W 005°30'1018.8
2017-Nov-12 10:57N 47°29' W 005°30'819.2
2017-Nov-12 10:31N 47°21' W 005°30'7621.6
2017-Nov-12 07:00N 46°06' W 005°48'9418.8 260 / 331019.210.8 15.014.116.0
2017-Nov-12 02:00N 45°00' W 007°24'16320.4 280 / 371024.210.8 15.013.216.0
2017-Nov-11 18:00N 42°54' W 009°48'20819.9 340 / 121030.410.8 15.012.316.0
2017-Nov-11 07:33N 39°26' W 009°53'320.0
2017-Nov-11 07:24N 39°23' W 009°53'819.9
2017-Nov-11 07:00N 39°15' W 009°53'5715.4
2017-Nov-11 07:00N 39°12' W 009°48'816.6 010 / 241030.210.8 15.011.316.0
2017-Nov-11 06:30N 39°05' W 009°53'1020.2
2017-Nov-11 06:00N 38°55' W 009°53'1020.3
2017-Nov-11 05:30N 38°45' W 009°53'1020.2
2017-Nov-11 05:00N 38°35' W 009°51'1019.8
2017-Nov-11 04:30N 38°25' W 009°48'1019.6
2017-Nov-11 04:00N 38°15' W 009°45'1019.8
2017-Nov-11 03:30N 38°06' W 009°42'1020.5
2017-Nov-11 03:00N 37°56' W 009°39'1121.1
2017-Nov-11 02:30N 37°46' W 009°36'1020.8
2017-Nov-11 02:00N 37°36' W 009°33'1020.6
2017-Nov-11 01:30N 37°25' W 009°31'1020.4
2017-Nov-11 01:00N 37°15' W 009°28'1220.5
2017-Nov-11 00:24N 37°04' W 009°23'820.3
2017-Nov-11 00:00N 36°56' W 009°20'1220.2
2017-Nov-10 23:23N 36°46' W 009°10'11521.3
2017-Nov-10 18:00N 36°36' W 006°48'67 3.9 060 / 181027.910.8 18.0 7.120.0
2017-Nov-10 00:46N 35°57' W 005°41'415.1
2017-Nov-10 00:29N 35°57' W 005°35'714.8
2017-Nov-10 00:00N 35°60' W 005°27'713.6
2017-Nov-09 23:30N 36°06' W 005°23'3 6.4
2017-Nov-09 23:00N 36°09' W 005°22'0 0.4
2017-Nov-09 22:29N 36°09' W 005°22'0 0.0
2017-Nov-09 21:59N 36°09' W 005°22'0 0.0
2017-Nov-09 21:29N 36°09' W 005°22'  
Track history (hours):
 
Tides and Currents Weather Stations Pressure Air Temp Water Temp Dewpoint Dewpoint Depression Visibility Wind Speed Wind Dir Waves Ship Positions

Oriana (Bermuda)

Last reported at 2017-Nov-19 15:20 UTC. Time now 2017-Nov-20 18:55 UTC.
Position N 38°49' E 009°40'.

Length 261 m; beam 32.2 m; draft 8.2 m.

Type: Ship. MMSI: 310529000.

Date/timePositionNaut miles runAvg speedWind from/ knotsBaromVisibWave heightAir tempDewpointWater temp
2017-Nov-19 15:20N 38°49' E 009°40'619.6
2017-Nov-19 15:00N 38°52' E 009°33'1020.1
2017-Nov-19 14:30N 38°59' E 009°23'1019.9
2017-Nov-19 14:00N 39°05' E 009°14'816.4
2017-Nov-19 13:29N 39°11' E 009°06'1 2.2
2017-Nov-19 12:59N 39°12' E 009°06'0 0.0
2017-Nov-19 12:29N 39°12' E 009°06'0 0.0
2017-Nov-19 11:59N 39°12' E 009°06'0 0.0
2017-Nov-19 11:29N 39°12' E 009°06'0 0.0
2017-Nov-19 10:59N 39°12' E 009°06'0 0.0
2017-Nov-19 10:29N 39°12' E 009°06'0 0.0
2017-Nov-19 09:59N 39°12' E 009°06'0 0.0
2017-Nov-19 09:29N 39°12' E 009°06'0 0.0
2017-Nov-19 08:59N 39°12' E 009°06'0 0.0
2017-Nov-19 08:29N 39°12' E 009°06'0 0.0
2017-Nov-19 07:59N 39°12' E 009°06'0 0.0
2017-Nov-19 07:29N 39°12' E 009°06'0 0.0
2017-Nov-19 06:58N 39°12' E 009°06'0 0.6
2017-Nov-19 06:30N 39°12' E 009°07'1 2.1
2017-Nov-19 06:00N 39°11' E 009°06'510.1
2017-Nov-19 05:30N 39°06' E 009°07'715.4
2017-Nov-19 05:00N 38°59' E 009°06'917.5
2017-Nov-19 04:30N 38°53' E 008°58'1018.5
2017-Nov-19 03:57N 38°47' E 008°47'41918.5
2017-Nov-18 05:16N 36°55' E 000°15'517.5
2017-Nov-18 05:00N 36°53' E 000°09'26417.9
2017-Nov-17 14:18N 36°01' W 005°12'517.5
2017-Nov-17 14:00N 36°02' W 005°19'713.2
2017-Nov-17 13:30N 36°08' W 005°23'2 3.1
2017-Nov-17 13:00N 36°09' W 005°22'0 0.0
2017-Nov-17 12:30N 36°09' W 005°22'0 0.0
2017-Nov-17 11:57N 36°09' W 005°22'0 0.0
2017-Nov-17 11:27N 36°09' W 005°22'0 0.0
2017-Nov-17 11:00N 36°09' W 005°22'0 0.0
2017-Nov-17 10:17N 36°09' W 005°22'0 0.0
2017-Nov-17 09:59N 36°09' W 005°22'0 0.0
2017-Nov-17 09:29N 36°09' W 005°22'0 0.0
2017-Nov-17 08:41N 36°09' W 005°22'0 0.0
2017-Nov-17 08:28N 36°09' W 005°22'0 0.0
2017-Nov-17 07:52N 36°09' W 005°22'0 0.0
2017-Nov-17 07:28N 36°09' W 005°22'0 0.0
2017-Nov-17 07:00N 36°09' W 005°22'1 1.9
2017-Nov-17 06:16N 36°08' W 005°23'2 9.4
2017-Nov-17 06:00N 36°06' W 005°22'611.0
2017-Nov-17 05:30N 36°00' W 005°23'713.9
2017-Nov-17 05:00N 35°57' W 005°30'112 4.2
2017-Nov-16 02:03N 36°34' W 007°42'222.3
2017-Nov-16 01:57N 36°34' W 007°45'2721.2
2017-Nov-16 00:42N 36°32' W 008°18'1320.8
2017-Nov-16 00:05N 36°33' W 008°34'6417.6
2017-Nov-15 20:25N 37°11' W 009°38'1021.2
2017-Nov-15 19:56N 37°21' W 009°42'921.3
2017-Nov-15 19:30N 37°30' W 009°45'1121.3
2017-Nov-15 19:00N 37°40' W 009°50'1321.4
2017-Nov-15 18:23N 37°53' W 009°54'821.5
2017-Nov-15 18:00N 38°01' W 009°56'1121.5
2017-Nov-15 17:30N 38°11' W 009°59'1121.5
2017-Nov-15 17:00N 38°22' W 010°00'1019.2
2017-Nov-15 16:30N 38°31' W 010°03'1019.2
2017-Nov-15 16:00N 38°41' W 010°06'1019.1
2017-Nov-15 15:30N 38°50' W 010°07'1019.5
2017-Nov-15 15:00N 39°00' W 010°07'1019.2
2017-Nov-15 14:30N 39°10' W 010°06'1019.4
2017-Nov-15 14:00N 39°19' W 010°06'1019.2
2017-Nov-15 13:29N 39°29' W 010°06'1619.2
2017-Nov-15 12:39N 39°45' W 010°07'40118.6
2017-Nov-14 15:09N 46°10' W 007°34'5219.6
2017-Nov-14 12:29N 46°55' W 006°55'1019.3
2017-Nov-14 11:58N 47°03' W 006°48'1019.4
2017-Nov-14 11:27N 47°12' W 006°40'919.7
2017-Nov-14 11:00N 47°20' W 006°33'1119.7
2017-Nov-14 10:25N 47°29' W 006°24'818.4
2017-Nov-14 10:00N 47°36' W 006°18'918.6
2017-Nov-14 09:30N 47°44' W 006°10'1018.9
2017-Nov-14 08:59N 47°52' W 006°03'1119.2
2017-Nov-14 08:26N 48°01' W 005°55'819.5
2017-Nov-14 08:00N 48°08' W 005°48'1119.7
2017-Nov-14 07:27N 48°18' W 005°41'920.0
2017-Nov-14 07:00N 48°25' W 005°33'1020.4
2017-Nov-14 06:30N 48°32' W 005°22'1020.7
2017-Nov-14 06:01N 48°40' W 005°12'1020.4
2017-Nov-14 05:30N 48°48' W 005°02'1019.4
2017-Nov-14 04:59N 48°54' W 004°50'919.0
2017-Nov-14 04:30N 48°60' W 004°39'918.7
2017-Nov-14 04:00N 49°06' W 004°28'1218.2
2017-Nov-14 03:21N 49°13' W 004°14'1017.6
2017-Nov-14 02:47N 49°19' W 004°01'1017.1
2017-Nov-14 02:12N 49°25' W 003°49'318.3
2017-Nov-14 02:00N 49°29' W 003°48'2417.6
2017-Nov-14 00:38N 49°45' W 003°21'318.5
2017-Nov-14 00:30N 49°47' W 003°18'1018.9
2017-Nov-14 00:00N 49°53' W 003°06'1019.6
2017-Nov-13 23:30N 49°58' W 002°53'1020.2
2017-Nov-13 23:00N 50°00' W 002°38'44 2.0
2017-Nov-13 01:37N 50°22' W 001°39'216.9
2017-Nov-13 01:30N 50°22' W 001°42'816.5
2017-Nov-13 01:00N 50°20' W 001°55'816.1
2017-Nov-13 00:30N 50°19' W 002°07'815.8
2017-Nov-13 00:00N 50°17' W 002°19'918.1
2017-Nov-12 23:31N 50°16' W 002°33'918.0
2017-Nov-12 23:01N 50°14' W 002°47'917.7
2017-Nov-12 22:31N 50°11' W 003°00'917.7
2017-Nov-12 22:01N 50°08' W 003°13'816.5
2017-Nov-12 21:31N 50°02' W 003°22'816.9
2017-Nov-12 21:01N 49°58' W 003°33'917.3
2017-Nov-12 20:30N 49°53' W 003°45'1815.9
2017-Nov-12 19:23N 49°42' W 004°06'2115.3
2017-Nov-12 18:00N 49°24' W 004°24'3017.4 340 / 451020.5 5.4 10.5 3.714.0
2017-Nov-12 16:14N 49°00' W 004°54'717.9
2017-Nov-12 15:52N 48°55' W 004°59'718.0
2017-Nov-12 15:29N 48°49' W 005°05'918.0
2017-Nov-12 15:00N 48°42' W 005°12'1118.7
2017-Nov-12 14:25N 48°33' W 005°22'818.8
2017-Nov-12 14:00N 48°26' W 005°28'918.4
2017-Nov-12 13:29N 48°17' W 005°29'918.5
2017-Nov-12 13:00N 48°08' W 005°27'1018.9
2017-Nov-12 12:29N 47°58' W 005°29'1018.7
2017-Nov-12 11:59N 47°49' W 005°29'918.8
2017-Nov-12 11:31N 47°40' W 005°30'1018.8
2017-Nov-12 10:57N 47°29' W 005°30'819.2
2017-Nov-12 10:31N 47°21' W 005°30'7621.6
2017-Nov-12 07:00N 46°06' W 005°48'9418.8 260 / 331019.210.8 15.014.116.0
2017-Nov-12 02:00N 45°00' W 007°24'16320.4 280 / 371024.210.8 15.013.216.0
2017-Nov-11 18:00N 42°54' W 009°48'20819.9 340 / 121030.410.8 15.012.316.0
2017-Nov-11 07:33N 39°26' W 009°53'320.0
2017-Nov-11 07:24N 39°23' W 009°53'819.9
2017-Nov-11 07:00N 39°15' W 009°53'5715.4
2017-Nov-11 07:00N 39°12' W 009°48'816.6 010 / 241030.210.8 15.011.316.0
2017-Nov-11 06:30N 39°05' W 009°53'1020.2
2017-Nov-11 06:00N 38°55' W 009°53'1020.3
2017-Nov-11 05:30N 38°45' W 009°53'1020.2
2017-Nov-11 05:00N 38°35' W 009°51'1019.8
2017-Nov-11 04:30N 38°25' W 009°48'1019.6
2017-Nov-11 04:00N 38°15' W 009°45'1019.8
2017-Nov-11 03:30N 38°06' W 009°42'1020.5
2017-Nov-11 03:00N 37°56' W 009°39'1121.1
2017-Nov-11 02:30N 37°46' W 009°36'1020.8
2017-Nov-11 02:00N 37°36' W 009°33'1020.6
2017-Nov-11 01:30N 37°25' W 009°31'1020.4
2017-Nov-11 01:00N 37°15' W 009°28'1220.5
2017-Nov-11 00:24N 37°04' W 009°23'820.3
2017-Nov-11 00:00N 36°56' W 009°20'1220.2
2017-Nov-10 23:23N 36°46' W 009°10'11521.3
2017-Nov-10 18:00N 36°36' W 006°48'67 3.9 060 / 181027.910.8 18.0 7.120.0
2017-Nov-10 00:46N 35°57' W 005°41'415.1
2017-Nov-10 00:29N 35°57' W 005°35'714.8
2017-Nov-10 00:00N 35°60' W 005°27'713.6
2017-Nov-09 23:30N 36°06' W 005°23'3 6.4
2017-Nov-09 23:00N 36°09' W 005°22'0 0.4
2017-Nov-09 22:29N 36°09' W 005°22'0 0.0
2017-Nov-09 21:59N 36°09' W 005°22'0 0.0
2017-Nov-09 21:29N 36°09' W 005°22'  

Dump ship's entire track history